Nordic Philip — 5BZH2 — position and weather

sailwx.info

Track history (hours):
 
Tides and Currents Weather Stations Pressure Air Temp Water Temp Dewpoint Dewpoint Depression Visibility Wind Speed Wind Dir Waves Ship Positions

Nordic Philip

Last reported at 2015-Apr-26 14:33 UTC. Time now 2015-May-06 09:27 UTC.
Position N 55°18' E 018°60'.
Warning: this ship's position is 9 days out of date.

Length 151 m; draft 6.1 m.

Type: Cargo ship. MMSI: 212018000.

Date/timePositionNaut miles runAvg speedWind from/ knotsBaromVisibWave heightAir tempDewpointWater temp
2015-Apr-26 14:33N 55°18' E 018°60'1312.9
2015-Apr-26 13:33N 55°13' E 018°40'1312.8
2015-Apr-26 12:34N 55°08' E 018°19'1412.9
2015-Apr-26 11:28N 55°02' E 017°57'11813.1
2015-Apr-26 02:28N 54°37' E 014°37'1212.8
2015-Apr-26 01:33N 54°37' E 014°17'1312.9
2015-Apr-26 00:33N 54°41' E 013°56'1313.1
2015-Apr-25 23:33N 54°45' E 013°34'1313.2
2015-Apr-25 22:33N 54°44' E 013°11'1313.1
2015-Apr-25 21:33N 54°43' E 012°49'1312.9
2015-Apr-25 20:33N 54°39' E 012°28'1312.6
2015-Apr-25 19:33N 54°28' E 012°15'1211.7
2015-Apr-25 18:33N 54°24' E 011°56'1312.7
2015-Apr-25 17:33N 54°27' E 011°35'1313.2
2015-Apr-25 16:34N 54°33' E 011°15'1312.7
2015-Apr-25 15:33N 54°35' E 010°53'1312.9
2015-Apr-25 14:33N 54°32' E 010°31'1212.3
2015-Apr-25 13:34N 54°26' E 010°14'5 4.8
2015-Apr-25 12:33N 54°22' E 010°08'7 7.3
2015-Apr-25 11:33N 54°20' E 009°56'6 6.0
2015-Apr-25 10:33N 54°21' E 009°46'6 6.0
2015-Apr-25 09:33N 54°17' E 009°38'8 8.0
2015-Apr-25 08:33N 54°11' E 009°29'7 6.7
2015-Apr-25 07:33N 54°07' E 009°20'8 8.2
2015-Apr-25 06:33N 53°59' E 009°17'3 3.0
2015-Apr-25 05:33N 53°56' E 009°13'4 4.0
2015-Apr-25 04:33N 53°54' E 009°09'2 1.6
2015-Apr-25 03:33N 53°53' E 009°06'4 3.6
2015-Apr-25 02:33N 53°53' E 009°12'3 3.3
2015-Apr-25 01:33N 53°52' E 009°18'4 4.2
2015-Apr-25 00:33N 53°49' E 009°22'10 9.6
2015-Apr-24 23:33N 53°40' E 009°30'1413.6
2015-Apr-24 22:33N 53°33' E 009°50'5 4.7
2015-Apr-24 21:31N 53°31' E 009°58'0 0.0
2015-Apr-24 20:31N 53°31' E 009°58'0 0.0
2015-Apr-24 19:31N 53°31' E 009°58'0 0.0
2015-Apr-24 18:32N 53°31' E 009°58'2 1.8
2015-Apr-24 17:27N 53°32' E 009°55'0 0.0
2015-Apr-24 16:33N 53°32' E 009°55'0 0.0
2015-Apr-24 15:33N 53°32' E 009°55'0 0.0
2015-Apr-24 14:30N 53°32' E 009°55'0 0.0
2015-Apr-24 13:34N 53°32' E 009°55'0 0.0
2015-Apr-24 12:24N 53°32' E 009°55'0 0.0
2015-Apr-24 11:34N 53°32' E 009°55'0 0.0
2015-Apr-24 10:33N 53°32' E 009°55'1 0.6
2015-Apr-24 09:33N 53°32' E 009°55'0 0.0
2015-Apr-24 08:32N 53°32' E 009°55'0 0.0
2015-Apr-24 07:32N 53°32' E 009°55'0 0.0
2015-Apr-24 06:32N 53°32' E 009°55'0 0.0
2015-Apr-24 05:33N 53°32' E 009°55'0 0.0
2015-Apr-24 04:10N 53°32' E 009°55'0 0.0
2015-Apr-24 03:28N 53°32' E 009°55'1 0.6
2015-Apr-24 02:33N 53°32' E 009°55'2 0.8
2015-Apr-24 00:29N 53°31' E 009°56'0 0.0
2015-Apr-23 23:29N 53°31' E 009°56'0 0.0
2015-Apr-23 22:23N 53°31' E 009°56'0 0.0
2015-Apr-23 21:29N 53°31' E 009°56'0 0.0
2015-Apr-23 20:30N 53°31' E 009°56'0 0.0
2015-Apr-23 19:29N 53°31' E 009°56'0 0.0
2015-Apr-23 18:24N 53°31' E 009°56'0 0.0
2015-Apr-23 17:33N 53°31' E 009°56'1 0.5
2015-Apr-23 16:33N 53°31' E 009°56'1010.3
2015-Apr-23 15:34N 53°34' E 009°40'1616.4
2015-Apr-23 14:34N 53°47' E 009°23'1313.0
2015-Apr-23 13:33N 53°52' E 009°02'1313.3
2015-Apr-23 12:33N 53°55' E 008°40'1716.9
2015-Apr-23 11:33N 53°60' E 008°13'4 4.0
2015-Apr-23 10:31N 54°03' E 008°09'0 0.2
2015-Apr-23 09:31N 54°03' E 008°09'0 0.0
2015-Apr-23 08:31N 54°03' E 008°09'0 0.0
2015-Apr-23 07:25N 54°03' E 008°09'0 0.0
2015-Apr-23 06:28N 54°03' E 008°09'0 0.0
2015-Apr-23 05:19N 54°03' E 008°09'0 0.1
2015-Apr-23 04:10N 54°03' E 008°09'0 0.1
2015-Apr-23 03:28N 54°03' E 008°09'0 0.1
2015-Apr-23 02:25N 54°03' E 008°09'0 0.0
2015-Apr-23 01:13N 54°03' E 008°09'0 0.0
2015-Apr-23 00:28N 54°03' E 008°09'1 0.6
2015-Apr-22 23:33N 54°03' E 008°08'1212.1
2015-Apr-22 22:33N 53°54' E 007°54'1211.7
2015-Apr-22 21:33N 53°47' E 008°10'1515.1
2015-Apr-22 20:33N 53°37' E 008°29'3 2.5
2015-Apr-22 19:31N 53°35' E 008°32'0 0.0
2015-Apr-22 18:28N 53°35' E 008°32'0 0.0
2015-Apr-22 17:10N 53°35' E 008°32'0 0.0
2015-Apr-22 16:31N 53°35' E 008°32'0 0.0
2015-Apr-22 15:31N 53°35' E 008°32'0 0.0
2015-Apr-22 14:34N 53°35' E 008°32'0 0.0
2015-Apr-22 13:31N 53°35' E 008°32'7 6.9
2015-Apr-22 12:33N 53°40' E 008°23'1615.6
2015-Apr-22 11:33N 53°50' E 008°04'8 7.7
2015-Apr-22 10:33N 53°54' E 007°53'0 0.2
2015-Apr-22 09:33N 53°54' E 007°53'3 3.0
2015-Apr-22 08:34N 53°56' E 007°57'10 9.5
2015-Apr-22 07:33N 54°00' E 008°12'1515.0
2015-Apr-22 06:33N 53°58' E 008°36'1515.2
2015-Apr-22 05:33N 53°51' E 008°60'6 6.0
2015-Apr-22 04:33N 53°54' E 009°09'1 1.2
2015-Apr-22 03:33N 53°55' E 009°10'7 6.9
2015-Apr-22 02:32N 54°00' E 009°18'8 8.2
2015-Apr-22 01:32N 54°08' E 009°20'8 8.4
2015-Apr-22 00:32N 54°12' E 009°33'6 5.4
2015-Apr-21 23:23N 54°17' E 009°39'6 7.7
2015-Apr-21 22:33N 54°21' E 009°47'8 7.6
2015-Apr-21 21:33N 54°21' E 009°60'5 5.1
2015-Apr-21 20:33N 54°22' E 010°08'2 2.4
2015-Apr-21 19:33N 54°23' E 010°12'1212.1
2015-Apr-21 18:33N 54°32' E 010°26'1312.9
2015-Apr-21 17:31N 54°35' E 010°49'1212.6
2015-Apr-21 16:33N 54°36' E 011°10'1312.7
2015-Apr-21 15:33N 54°31' E 011°29'1312.5
2015-Apr-21 14:33N 54°26' E 011°49'1312.6
2015-Apr-21 13:33N 54°27' E 012°11'1412.4
2015-Apr-21 12:26N 54°39' E 012°23'1312.7
2015-Apr-21 11:25N 54°47' E 012°41'1212.8
2015-Apr-21 10:29N 54°51' E 012°60'1212.7
2015-Apr-21 09:33N 54°55' E 013°20'1312.8
2015-Apr-21 08:33N 54°59' E 013°40'1312.7
2015-Apr-21 07:33N 55°04' E 014°01'1916.6
2015-Apr-21 06:25N 55°18' E 014°23'1214.1
2015-Apr-21 05:33N 55°27' E 014°38'1313.2
2015-Apr-21 04:33N 55°33' E 014°58'35713.1
2015-Apr-20 01:13N 59°35' E 023°08'913.0
2015-Apr-20 00:33N 59°37' E 023°24'1313.5
2015-Apr-19 23:34N 59°42' E 023°49'1813.3
2015-Apr-19 22:12N 59°47' E 024°24'5313.3
2015-Apr-19 18:13N 59°58' E 026°06'1013.3
2015-Apr-19 17:28N 60°00' E 026°26'1213.0
2015-Apr-19 16:34N 60°00' E 026°49'1312.7
2015-Apr-19 15:31N 60°03' E 027°15'1313.3
2015-Apr-19 14:33N 60°10' E 027°37'6312.6
2015-Apr-19 09:31N 59°59' E 029°42'1111.1
2015-Apr-19 08:33N 59°55' E 030°02'6 1.0
2015-Apr-19 02:31N 59°52' E 030°12'0 0.0
2015-Apr-18 23:10N 59°52' E 030°12'0 0.0
2015-Apr-18 18:04N 59°52' E 030°12'0 0.0
2015-Apr-18 16:04N 59°52' E 030°12'0 0.0
2015-Apr-18 15:16N 59°52' E 030°12'0 0.0
2015-Apr-18 14:29N 59°52' E 030°12'0 0.0
2015-Apr-18 13:28N 59°52' E 030°12'1 0.7
2015-Apr-18 12:33N 59°53' E 030°12'0 0.0
2015-Apr-18 04:24N 59°53' E 030°12'0 0.0
2015-Apr-18 03:24N 59°53' E 030°12'0 0.0
2015-Apr-18 01:09N 59°53' E 030°12'1 0.9
2015-Apr-18 00:33N 59°53' E 030°11'1 1.0
2015-Apr-17 23:15N 59°54' E 030°14'0 0.0
2015-Apr-17 15:24N 59°54' E 030°14'3 3.3
2015-Apr-17 14:33N 59°54' E 030°08'1010.3
2015-Apr-17 13:33N 59°58' E 029°49'9712.1
2015-Apr-17 05:33N 59°59' E 026°36'4914.3
2015-Apr-17 02:07N 59°48' E 025°01'814.4
2015-Apr-17 01:33N 59°46' E 024°45'1514.6
2015-Apr-17 00:33N 59°42' E 024°17'3014.4
2015-Apr-16 22:27N 59°32' E 023°21'  
Track history (hours):
 
Tides and Currents Weather Stations Pressure Air Temp Water Temp Dewpoint Dewpoint Depression Visibility Wind Speed Wind Dir Waves Ship Positions

Nordic Philip

Last reported at 2015-Apr-26 14:33 UTC. Time now 2015-May-06 09:27 UTC.
Position N 55°18' E 018°60'.
Warning: this ship's position is 9 days out of date.

Length 151 m; draft 6.1 m.

Type: Cargo ship. MMSI: 212018000.

Date/timePositionNaut miles runAvg speedWind from/ knotsBaromVisibWave heightAir tempDewpointWater temp
2015-Apr-26 14:33N 55°18' E 018°60'1312.9
2015-Apr-26 13:33N 55°13' E 018°40'1312.8
2015-Apr-26 12:34N 55°08' E 018°19'1412.9
2015-Apr-26 11:28N 55°02' E 017°57'11813.1
2015-Apr-26 02:28N 54°37' E 014°37'1212.8
2015-Apr-26 01:33N 54°37' E 014°17'1312.9
2015-Apr-26 00:33N 54°41' E 013°56'1313.1
2015-Apr-25 23:33N 54°45' E 013°34'1313.2
2015-Apr-25 22:33N 54°44' E 013°11'1313.1
2015-Apr-25 21:33N 54°43' E 012°49'1312.9
2015-Apr-25 20:33N 54°39' E 012°28'1312.6
2015-Apr-25 19:33N 54°28' E 012°15'1211.7
2015-Apr-25 18:33N 54°24' E 011°56'1312.7
2015-Apr-25 17:33N 54°27' E 011°35'1313.2
2015-Apr-25 16:34N 54°33' E 011°15'1312.7
2015-Apr-25 15:33N 54°35' E 010°53'1312.9
2015-Apr-25 14:33N 54°32' E 010°31'1212.3
2015-Apr-25 13:34N 54°26' E 010°14'5 4.8
2015-Apr-25 12:33N 54°22' E 010°08'7 7.3
2015-Apr-25 11:33N 54°20' E 009°56'6 6.0
2015-Apr-25 10:33N 54°21' E 009°46'6 6.0
2015-Apr-25 09:33N 54°17' E 009°38'8 8.0
2015-Apr-25 08:33N 54°11' E 009°29'7 6.7
2015-Apr-25 07:33N 54°07' E 009°20'8 8.2
2015-Apr-25 06:33N 53°59' E 009°17'3 3.0
2015-Apr-25 05:33N 53°56' E 009°13'4 4.0
2015-Apr-25 04:33N 53°54' E 009°09'2 1.6
2015-Apr-25 03:33N 53°53' E 009°06'4 3.6
2015-Apr-25 02:33N 53°53' E 009°12'3 3.3
2015-Apr-25 01:33N 53°52' E 009°18'4 4.2
2015-Apr-25 00:33N 53°49' E 009°22'10 9.6
2015-Apr-24 23:33N 53°40' E 009°30'1413.6
2015-Apr-24 22:33N 53°33' E 009°50'5 4.7
2015-Apr-24 21:31N 53°31' E 009°58'0 0.0
2015-Apr-24 20:31N 53°31' E 009°58'0 0.0
2015-Apr-24 19:31N 53°31' E 009°58'0 0.0
2015-Apr-24 18:32N 53°31' E 009°58'2 1.8
2015-Apr-24 17:27N 53°32' E 009°55'0 0.0
2015-Apr-24 16:33N 53°32' E 009°55'0 0.0
2015-Apr-24 15:33N 53°32' E 009°55'0 0.0
2015-Apr-24 14:30N 53°32' E 009°55'0 0.0
2015-Apr-24 13:34N 53°32' E 009°55'0 0.0
2015-Apr-24 12:24N 53°32' E 009°55'0 0.0
2015-Apr-24 11:34N 53°32' E 009°55'0 0.0
2015-Apr-24 10:33N 53°32' E 009°55'1 0.6
2015-Apr-24 09:33N 53°32' E 009°55'0 0.0
2015-Apr-24 08:32N 53°32' E 009°55'0 0.0
2015-Apr-24 07:32N 53°32' E 009°55'0 0.0
2015-Apr-24 06:32N 53°32' E 009°55'0 0.0
2015-Apr-24 05:33N 53°32' E 009°55'0 0.0
2015-Apr-24 04:10N 53°32' E 009°55'0 0.0
2015-Apr-24 03:28N 53°32' E 009°55'1 0.6
2015-Apr-24 02:33N 53°32' E 009°55'2 0.8
2015-Apr-24 00:29N 53°31' E 009°56'0 0.0
2015-Apr-23 23:29N 53°31' E 009°56'0 0.0
2015-Apr-23 22:23N 53°31' E 009°56'0 0.0
2015-Apr-23 21:29N 53°31' E 009°56'0 0.0
2015-Apr-23 20:30N 53°31' E 009°56'0 0.0
2015-Apr-23 19:29N 53°31' E 009°56'0 0.0
2015-Apr-23 18:24N 53°31' E 009°56'0 0.0
2015-Apr-23 17:33N 53°31' E 009°56'1 0.5
2015-Apr-23 16:33N 53°31' E 009°56'1010.3
2015-Apr-23 15:34N 53°34' E 009°40'1616.4
2015-Apr-23 14:34N 53°47' E 009°23'1313.0
2015-Apr-23 13:33N 53°52' E 009°02'1313.3
2015-Apr-23 12:33N 53°55' E 008°40'1716.9
2015-Apr-23 11:33N 53°60' E 008°13'4 4.0
2015-Apr-23 10:31N 54°03' E 008°09'0 0.2
2015-Apr-23 09:31N 54°03' E 008°09'0 0.0
2015-Apr-23 08:31N 54°03' E 008°09'0 0.0
2015-Apr-23 07:25N 54°03' E 008°09'0 0.0
2015-Apr-23 06:28N 54°03' E 008°09'0 0.0
2015-Apr-23 05:19N 54°03' E 008°09'0 0.1
2015-Apr-23 04:10N 54°03' E 008°09'0 0.1
2015-Apr-23 03:28N 54°03' E 008°09'0 0.1
2015-Apr-23 02:25N 54°03' E 008°09'0 0.0
2015-Apr-23 01:13N 54°03' E 008°09'0 0.0
2015-Apr-23 00:28N 54°03' E 008°09'1 0.6
2015-Apr-22 23:33N 54°03' E 008°08'1212.1
2015-Apr-22 22:33N 53°54' E 007°54'1211.7
2015-Apr-22 21:33N 53°47' E 008°10'1515.1
2015-Apr-22 20:33N 53°37' E 008°29'3 2.5
2015-Apr-22 19:31N 53°35' E 008°32'0 0.0
2015-Apr-22 18:28N 53°35' E 008°32'0 0.0
2015-Apr-22 17:10N 53°35' E 008°32'0 0.0
2015-Apr-22 16:31N 53°35' E 008°32'0 0.0
2015-Apr-22 15:31N 53°35' E 008°32'0 0.0
2015-Apr-22 14:34N 53°35' E 008°32'0 0.0
2015-Apr-22 13:31N 53°35' E 008°32'7 6.9
2015-Apr-22 12:33N 53°40' E 008°23'1615.6
2015-Apr-22 11:33N 53°50' E 008°04'8 7.7
2015-Apr-22 10:33N 53°54' E 007°53'0 0.2
2015-Apr-22 09:33N 53°54' E 007°53'3 3.0
2015-Apr-22 08:34N 53°56' E 007°57'10 9.5
2015-Apr-22 07:33N 54°00' E 008°12'1515.0
2015-Apr-22 06:33N 53°58' E 008°36'1515.2
2015-Apr-22 05:33N 53°51' E 008°60'6 6.0
2015-Apr-22 04:33N 53°54' E 009°09'1 1.2
2015-Apr-22 03:33N 53°55' E 009°10'7 6.9
2015-Apr-22 02:32N 54°00' E 009°18'8 8.2
2015-Apr-22 01:32N 54°08' E 009°20'8 8.4
2015-Apr-22 00:32N 54°12' E 009°33'6 5.4
2015-Apr-21 23:23N 54°17' E 009°39'6 7.7
2015-Apr-21 22:33N 54°21' E 009°47'8 7.6
2015-Apr-21 21:33N 54°21' E 009°60'5 5.1
2015-Apr-21 20:33N 54°22' E 010°08'2 2.4
2015-Apr-21 19:33N 54°23' E 010°12'1212.1
2015-Apr-21 18:33N 54°32' E 010°26'1312.9
2015-Apr-21 17:31N 54°35' E 010°49'1212.6
2015-Apr-21 16:33N 54°36' E 011°10'1312.7
2015-Apr-21 15:33N 54°31' E 011°29'1312.5
2015-Apr-21 14:33N 54°26' E 011°49'1312.6
2015-Apr-21 13:33N 54°27' E 012°11'1412.4
2015-Apr-21 12:26N 54°39' E 012°23'1312.7
2015-Apr-21 11:25N 54°47' E 012°41'1212.8
2015-Apr-21 10:29N 54°51' E 012°60'1212.7
2015-Apr-21 09:33N 54°55' E 013°20'1312.8
2015-Apr-21 08:33N 54°59' E 013°40'1312.7
2015-Apr-21 07:33N 55°04' E 014°01'1916.6
2015-Apr-21 06:25N 55°18' E 014°23'1214.1
2015-Apr-21 05:33N 55°27' E 014°38'1313.2
2015-Apr-21 04:33N 55°33' E 014°58'35713.1
2015-Apr-20 01:13N 59°35' E 023°08'913.0
2015-Apr-20 00:33N 59°37' E 023°24'1313.5
2015-Apr-19 23:34N 59°42' E 023°49'1813.3
2015-Apr-19 22:12N 59°47' E 024°24'5313.3
2015-Apr-19 18:13N 59°58' E 026°06'1013.3
2015-Apr-19 17:28N 60°00' E 026°26'1213.0
2015-Apr-19 16:34N 60°00' E 026°49'1312.7
2015-Apr-19 15:31N 60°03' E 027°15'1313.3
2015-Apr-19 14:33N 60°10' E 027°37'6312.6
2015-Apr-19 09:31N 59°59' E 029°42'1111.1
2015-Apr-19 08:33N 59°55' E 030°02'6 1.0
2015-Apr-19 02:31N 59°52' E 030°12'0 0.0
2015-Apr-18 23:10N 59°52' E 030°12'0 0.0
2015-Apr-18 18:04N 59°52' E 030°12'0 0.0
2015-Apr-18 16:04N 59°52' E 030°12'0 0.0
2015-Apr-18 15:16N 59°52' E 030°12'0 0.0
2015-Apr-18 14:29N 59°52' E 030°12'0 0.0
2015-Apr-18 13:28N 59°52' E 030°12'1 0.7
2015-Apr-18 12:33N 59°53' E 030°12'0 0.0
2015-Apr-18 04:24N 59°53' E 030°12'0 0.0
2015-Apr-18 03:24N 59°53' E 030°12'0 0.0
2015-Apr-18 01:09N 59°53' E 030°12'1 0.9
2015-Apr-18 00:33N 59°53' E 030°11'1 1.0
2015-Apr-17 23:15N 59°54' E 030°14'0 0.0
2015-Apr-17 15:24N 59°54' E 030°14'3 3.3
2015-Apr-17 14:33N 59°54' E 030°08'1010.3
2015-Apr-17 13:33N 59°58' E 029°49'9712.1
2015-Apr-17 05:33N 59°59' E 026°36'4914.3
2015-Apr-17 02:07N 59°48' E 025°01'814.4
2015-Apr-17 01:33N 59°46' E 024°45'1514.6
2015-Apr-17 00:33N 59°42' E 024°17'3014.4
2015-Apr-16 22:27N 59°32' E 023°21'  

Dump ship's entire track history